Time;durP1;ratioP1;P1;durP2;ratioP2;P2;SDS_P1;SDS_P2;PMS_P1;PMS_P2;Temp;Humidity;BMP_temperature;BMP_pressure;BME280_temperature;BME280_humidity;BME280_pressure;Samples;Min_cycle;Max_cycle;Signal;HPM_P1;HPM_P2
2023/12/29 00:02:27;;;;;;;5.28;1.20;;;;;;;18.48;38.22;100862.63;16113497;19;130582;-66
2023/12/29 00:07:48;;;;;;;5.47;1.45;;;;;;;18.44;37.94;100856.75;16110157;19;131090;-64
2023/12/29 00:13:10;;;;;;;4.47;1.02;;;;;;;18.39;38.01;100846.41;16112026;19;129807;-66
2023/12/29 00:18:32;;;;;;;5.60;1.35;;;;;;;18.37;38.26;100834.69;16112696;19;131772;-65
2023/12/29 00:23:55;;;;;;;3.65;1.52;;;;;;;18.32;38.16;100831.84;16107211;19;130606;-66
2023/12/29 00:29:17;;;;;;;4.13;1.25;;;;;;;18.29;38.29;100826.78;16113225;19;129791;-65
2023/12/29 00:34:40;;;;;;;3.95;1.45;;;;;;;18.26;37.89;100816.19;16105279;19;129544;-66
2023/12/29 00:40:02;;;;;;;3.67;1.10;;;;;;;18.22;38.34;100826.94;16107071;19;130322;-66
2023/12/29 00:45:24;;;;;;;5.53;1.30;;;;;;;18.20;38.22;100822.72;16110461;19;131091;-66
2023/12/29 00:50:46;;;;;;;4.65;1.20;;;;;;;18.17;38.24;100812.16;16104615;19;130895;-66
2023/12/29 00:56:11;;;;;;;2.58;0.90;;;;;;;18.15;38.31;100816.00;16107406;19;129382;-66
2023/12/29 01:01:34;;;;;;;4.80;0.90;;;;;;;18.12;38.41;100808.19;16106448;19;131439;-66
2023/12/29 01:06:57;;;;;;;4.32;1.23;;;;;;;18.10;38.48;100809.50;16109100;19;130998;-65
2023/12/29 01:12:19;;;;;;;2.50;0.93;;;;;;;18.08;38.40;100804.25;16105729;19;130141;-66
2023/12/29 01:17:41;;;;;;;4.18;1.10;;;;;;;18.06;38.34;100789.78;16105910;19;131020;-65
2023/12/29 01:23:03;;;;;;;5.72;1.02;;;;;;;18.05;38.36;100787.25;16104944;19;131374;-66
2023/12/29 01:28:25;;;;;;;5.68;1.38;;;;;;;18.02;38.52;100791.38;16105741;19;130276;-66
2023/12/29 01:33:47;;;;;;;3.58;1.27;;;;;;;18.01;38.68;100792.44;16107828;19;130956;-66
2023/12/29 01:39:10;;;;;;;4.35;1.20;;;;;;;17.98;38.58;100795.69;16105816;19;130007;-66
2023/12/29 01:44:32;;;;;;;5.68;1.20;;;;;;;17.96;38.32;100778.53;16104654;19;130809;-66
2023/12/29 01:49:54;;;;;;;4.90;1.15;;;;;;;17.94;38.65;100786.22;16104256;19;130294;-66
2023/12/29 01:55:19;;;;;;;4.47;1.20;;;;;;;17.92;38.43;100767.06;16105491;19;129718;-66
2023/12/29 02:00:43;;;;;;;3.95;1.23;;;;;;;17.89;38.79;100800.81;16102532;19;130471;-66
2023/12/29 02:06:06;;;;;;;2.97;0.90;;;;;;;17.88;38.75;100792.72;16103309;19;130572;-66
2023/12/29 02:11:28;;;;;;;5.03;1.27;;;;;;;17.85;38.69;100777.47;16108143;19;129998;-65
2023/12/29 02:16:59;;;;;;;4.05;1.05;;;;;;;17.85;38.83;100794.06;16118241;19;129510;-66
2023/12/29 02:22:21;;;;;;;4.55;1.10;;;;;;;17.82;38.77;100791.78;16121577;19;130357;-65
2023/12/29 02:28:19;;;;;;;3.80;1.00;;;;;;;17.82;38.75;100809.22;16114458;19;131161;-66
2023/12/29 02:33:44;;;;;;;3.42;1.23;;;;;;;17.79;38.93;100795.03;16112624;19;129851;-66
2023/12/29 02:39:06;;;;;;;4.13;0.90;;;;;;;17.77;38.64;100798.03;16110947;19;131153;-66
2023/12/29 02:44:28;;;;;;;3.00;0.98;;;;;;;17.76;39.02;100788.06;16115425;19;130287;-66
2023/12/29 02:49:50;;;;;;;1.95;0.80;;;;;;;17.75;38.54;100789.13;16116734;19;129499;-66
2023/12/29 02:55:12;;;;;;;3.45;1.10;;;;;;;17.74;38.62;100803.22;16114974;19;129569;-65
2023/12/29 03:00:37;;;;;;;2.28;0.73;;;;;;;17.73;39.04;100802.38;16110841;19;129548;-66
2023/12/29 03:05:59;;;;;;;4.00;0.90;;;;;;;17.72;38.87;100806.25;16117260;19;129550;-66
2023/12/29 03:11:21;;;;;;;2.58;0.68;;;;;;;17.71;39.17;100789.88;16115424;19;130081;-66
2023/12/29 03:16:43;;;;;;;3.03;0.70;;;;;;;17.68;39.16;100772.66;16112486;19;130505;-66
2023/12/29 03:22:05;;;;;;;2.60;0.70;;;;;;;17.67;39.10;100772.94;16111944;19;129795;-66
2023/12/29 03:27:27;;;;;;;3.20;0.80;;;;;;;17.67;39.21;100770.16;16111937;19;131951;-66
2023/12/29 03:32:48;;;;;;;2.95;0.82;;;;;;;17.65;38.78;100767.66;16113356;19;129637;-66
2023/12/29 03:38:11;;;;;;;3.45;0.80;;;;;;;17.64;39.23;100782.56;16114861;19;131238;-66
2023/12/29 03:43:33;;;;;;;3.25;0.80;;;;;;;17.63;39.16;100757.88;16112227;19;130349;-66
2023/12/29 03:48:58;;;;;;;3.75;1.08;;;;;;;17.62;38.77;100758.97;16112058;19;129354;-65
2023/12/29 03:54:21;;;;;;;3.90;0.93;;;;;;;17.60;39.11;100756.47;16111687;19;135498;-65
2023/12/29 03:59:43;;;;;;;4.15;0.80;;;;;;;17.59;39.15;100762.25;16111569;19;130583;-66
2023/12/29 04:05:06;;;;;;;3.03;0.80;;;;;;;17.59;38.83;100773.31;16108245;19;130776;-65
2023/12/29 04:10:28;;;;;;;2.00;0.57;;;;;;;17.57;39.15;100769.94;16111363;19;131024;-66
2023/12/29 04:15:50;;;;;;;2.78;0.90;;;;;;;17.57;39.23;100769.94;16106722;19;129679;-67
2023/12/29 04:21:16;;;;;;;3.53;0.88;;;;;;;17.57;39.16;100792.06;16109498;19;129553;-66
2023/12/29 04:26:38;;;;;;;3.40;0.98;;;;;;;17.53;38.83;100775.91;16113752;19;130975;-65
2023/12/29 04:31:59;;;;;;;3.17;1.00;;;;;;;17.53;38.83;100773.16;16109360;19;129507;-65
2023/12/29 04:37:21;;;;;;;6.22;1.10;;;;;;;17.53;38.89;100775.09;16110618;19;131396;-66
2023/12/29 04:42:43;;;;;;;3.88;1.40;;;;;;;17.50;39.17;100781.94;16109690;19;130803;-66
2023/12/29 04:48:06;;;;;;;3.25;1.02;;;;;;;17.50;39.36;100781.94;16110893;19;131200;-66
2023/12/29 04:53:28;;;;;;;4.78;1.42;;;;;;;17.48;39.28;100772.19;16104713;19;129694;-66
2023/12/29 04:58:51;;;;;;;5.25;0.95;;;;;;;17.49;38.95;100790.47;16106954;19;130757;-66
2023/12/29 05:04:14;;;;;;;4.70;0.85;;;;;;;17.46;39.16;100768.84;16108092;19;130392;-66
2023/12/29 05:09:36;;;;;;;5.85;1.08;;;;;;;17.47;39.06;100776.91;16109488;19;130270;-65
2023/12/29 05:14:58;;;;;;;3.50;1.00;;;;;;;17.46;39.42;100788.19;16106925;19;131414;-65
2023/12/29 05:20:20;;;;;;;3.00;0.98;;;;;;;17.44;39.22;100777.38;16109545;19;131428;-65
2023/12/29 05:25:42;;;;;;;3.53;1.10;;;;;;;17.43;39.31;100784.00;16105544;19;130908;-65
2023/12/29 05:31:04;;;;;;;4.38;1.00;;;;;;;17.43;39.33;100772.94;16109181;19;129582;-65
2023/12/29 05:36:26;;;;;;;5.18;1.05;;;;;;;17.42;39.48;100764.84;16106026;19;129504;-66
2023/12/29 05:41:48;;;;;;;2.45;0.80;;;;;;;17.42;39.48;100759.31;16103080;19;130737;-65
2023/12/29 05:47:10;;;;;;;3.85;0.75;;;;;;;17.40;39.45;100756.81;16111645;19;130299;-65
2023/12/29 05:52:32;;;;;;;2.20;0.70;;;;;;;17.40;39.10;100748.53;16120372;19;131338;-65
2023/12/29 05:57:54;;;;;;;3.65;1.10;;;;;;;17.39;39.08;100758.75;16117183;19;131786;-65
2023/12/29 06:03:16;;;;;;;3.80;1.05;;;;;;;17.38;39.15;100751.53;16119492;19;130414;-65
2023/12/29 06:08:38;;;;;;;5.15;1.10;;;;;;;17.38;39.17;100740.47;16119848;19;129613;-65
2023/12/29 06:14:00;;;;;;;3.38;1.00;;;;;;;17.37;39.11;100737.94;16115148;19;129332;-66
2023/12/29 06:19:22;;;;;;;4.57;1.08;;;;;;;17.37;39.29;100754.53;16117041;19;130626;-65
2023/12/29 06:24:44;;;;;;;6.65;1.40;;;;;;;17.36;39.62;100741.78;16118949;19;131051;-66
2023/12/29 06:30:08;;;;;;;4.25;1.15;;;;;;;17.35;39.66;100754.78;16112161;19;131044;-64
2023/12/29 06:35:30;;;;;;;3.55;1.20;;;;;;;17.37;39.82;100746.22;16121041;19;129421;-65
2023/12/29 06:40:52;;;;;;;3.80;1.45;;;;;;;17.38;39.60;100751.53;16109739;19;129784;-62
2023/12/29 06:46:14;;;;;;;4.05;1.13;;;;;;;17.39;39.70;100741.31;16116729;19;129393;-65
2023/12/29 06:51:38;;;;;;;6.90;1.40;;;;;;;17.38;39.76;100736.84;16115155;19;131977;-65
2023/12/29 06:57:00;;;;;;;7.47;1.33;;;;;;;17.38;40.20;100745.16;16116051;19;131110;-64
2023/12/29 07:02:22;;;;;;;7.07;1.67;;;;;;;17.37;40.08;100749.00;16113643;19;129446;-65
2023/12/29 07:07:44;;;;;;;9.48;1.30;;;;;;;17.36;40.36;100756.47;16112817;19;129684;-65
2023/12/29 07:13:06;;;;;;;8.38;1.63;;;;;;;17.36;40.25;100744.53;16109895;19;133166;-65
2023/12/29 07:18:28;;;;;;;7.15;1.05;;;;;;;17.36;40.19;100748.16;16111309;19;129855;-65
2023/12/29 07:23:50;;;;;;;6.05;1.15;;;;;;;17.35;40.26;100749.25;16113881;19;130852;-61
2023/12/29 07:29:12;;;;;;;7.07;1.17;;;;;;;17.34;40.01;100741.22;16117112;19;129536;-64
2023/12/29 07:34:34;;;;;;;8.38;1.30;;;;;;;17.34;40.37;100738.44;16112768;19;131345;-64
2023/12/29 07:39:57;;;;;;;5.80;0.90;;;;;;;17.32;40.24;100741.44;16110634;19;129038;-64
2023/12/29 07:45:19;;;;;;;5.88;1.15;;;;;;;17.32;40.54;100759.97;16112594;19;129485;-65
2023/12/29 07:50:41;;;;;;;5.13;1.35;;;;;;;17.32;40.33;100748.91;16116536;19;130812;-65
2023/12/29 07:56:04;;;;;;;4.90;1.38;;;;;;;17.31;40.54;100722.31;16110963;19;131232;-65
2023/12/29 08:01:26;;;;;;;4.10;1.10;;;;;;;17.29;40.62;100724.50;16110692;19;129058;-65
2023/12/29 08:06:49;;;;;;;7.10;1.05;;;;;;;17.30;40.19;100709.59;16105781;19;129570;-65
2023/12/29 08:12:11;;;;;;;3.70;0.85;;;;;;;17.28;40.39;100733.88;16102737;19;129743;-64
2023/12/29 08:17:33;;;;;;;4.32;0.98;;;;;;;17.28;40.56;100733.88;16103644;19;129866;-65
2023/12/29 08:22:56;;;;;;;4.15;0.90;;;;;;;17.27;40.61;100737.72;16112664;19;130886;-65
2023/12/29 08:28:18;;;;;;;3.85;0.80;;;;;;;17.26;40.36;100756.22;16110554;19;129486;-65
2023/12/29 08:33:40;;;;;;;4.07;1.08;;;;;;;17.24;40.20;100773.03;16106865;19;133952;-64
2023/12/29 08:39:02;;;;;;;3.75;0.90;;;;;;;17.23;40.71;100781.59;16110583;19;130814;-64
2023/12/29 08:44:25;;;;;;;2.97;0.70;;;;;;;17.21;40.35;100812.25;16112237;19;129639;-65
2023/12/29 08:49:48;;;;;;;3.55;0.70;;;;;;;17.22;40.36;100789.06;16108106;19;129606;-65
2023/12/29 08:55:10;;;;;;;4.03;1.05;;;;;;;17.21;40.58;100756.97;16110329;19;130059;-64
2023/12/29 09:00:32;;;;;;;2.13;0.52;;;;;;;17.20;40.31;100754.41;16108336;19;129651;-64
2023/12/29 09:05:56;;;;;;;1.52;0.68;;;;;;;17.18;40.70;100746.38;16105841;19;129422;-64
2023/12/29 09:11:19;;;;;;;2.67;0.75;;;;;;;17.18;40.33;100735.31;16104868;19;131691;-65
2023/12/29 09:16:42;;;;;;;3.25;0.70;;;;;;;17.18;40.79;100768.50;16102875;19;131593;-65
2023/12/29 09:22:05;;;;;;;1.70;0.60;;;;;;;17.19;40.49;100763.78;16111187;19;130735;-65
2023/12/29 09:27:27;;;;;;;2.13;0.60;;;;;;;17.17;40.52;100772.34;16121894;19;129300;-65
2023/12/29 09:32:49;;;;;;;2.22;0.60;;;;;;;17.17;40.46;100782.56;16122262;19;130017;-64
2023/12/29 09:38:11;;;;;;;1.48;0.65;;;;;;;17.16;40.69;100792.75;16123573;19;129417;-65
2023/12/29 09:43:34;;;;;;;1.55;0.60;;;;;;;17.16;40.52;100797.47;16124510;19;130138;-64
2023/12/29 09:49:02;;;;;;;2.70;0.50;;;;;;;17.16;40.61;100803.81;16121741;19;129734;-64
2023/12/29 09:54:25;;;;;;;3.83;0.50;;;;;;;17.16;40.79;100797.47;16121679;19;129842;-64
2023/12/29 09:59:52;;;;;;;5.45;0.55;;;;;;;17.16;40.66;100803.00;16118201;19;130278;-65
2023/12/29 10:05:15;;;;;;;2.40;0.60;;;;;;;17.15;40.98;100804.06;16119521;19;130337;-64
2023/12/29 10:10:39;;;;;;;4.38;0.65;;;;;;;17.15;41.07;100804.91;16119247;19;129832;-66
2023/12/29 10:16:28;;;;;;;4.72;0.65;;;;;;;17.17;40.99;100811.03;16117077;19;131755;-64
2023/12/29 10:22:03;;;;;;;4.22;0.80;;;;;;;17.16;41.07;100803.81;16121286;19;129755;-65
2023/12/29 10:27:26;;;;;;;4.47;0.73;;;;;;;17.14;41.46;100814.28;16119783;19;129157;-64
2023/12/29 10:32:51;;;;;;;3.28;0.65;;;;;;;17.14;41.56;100797.69;16115980;19;129635;-65
2023/12/29 10:38:14;;;;;;;5.05;0.80;;;;;;;17.15;41.11;100804.06;16118806;19;130447;-65
2023/12/29 10:43:36;;;;;;;4.80;0.73;;;;;;;17.15;41.38;100804.91;16114826;19;129508;-65
2023/12/29 10:49:09;;;;;;;2.75;0.70;;;;;;;17.17;41.25;100810.22;16114978;19;129950;-64
2023/12/29 10:54:31;;;;;;;3.30;0.60;;;;;;;17.14;41.20;100805.16;16111335;19;131008;-65
2023/12/29 10:59:55;;;;;;;1.75;0.75;;;;;;;17.16;41.56;100787.25;16114805;19;129865;-64
2023/12/29 11:05:25;;;;;;;1.83;0.60;;;;;;;17.16;41.59;100792.75;16119086;19;129528;-64
2023/12/29 11:10:49;;;;;;;3.17;0.55;;;;;;;17.15;41.44;100787.50;16115920;19;130440;-66
2023/12/29 11:16:11;;;;;;;4.07;0.80;;;;;;;17.15;41.55;100790.25;16115353;19;130783;-65
2023/12/29 11:21:34;;;;;;;1.92;0.60;;;;;;;17.16;41.42;100787.25;16115136;19;130964;-65
2023/12/29 11:26:57;;;;;;;3.00;0.68;;;;;;;17.16;41.24;100781.72;16114008;19;131047;-64
2023/12/29 11:32:26;;;;;;;1.85;0.50;;;;;;;17.17;41.32;100788.91;16111567;19;133173;-64
2023/12/29 11:38:00;;;;;;;3.03;0.60;;;;;;;17.17;41.35;100788.91;16105722;19;130718;-64
2023/12/29 11:43:22;;;;;;;2.85;0.85;;;;;;;17.14;41.48;100774.75;16110437;19;131104;-64
2023/12/29 11:48:55;;;;;;;4.35;0.80;;;;;;;17.15;41.50;100780.03;16116718;19;129612;-64
2023/12/29 11:54:26;;;;;;;2.67;0.60;;;;;;;17.15;41.42;100768.97;16110648;19;130591;-66
2023/12/29 11:59:48;;;;;;;4.60;0.70;;;;;;;17.13;41.66;100768.34;16107577;19;131448;-65
2023/12/29 12:05:10;;;;;;;6.15;0.90;;;;;;;17.13;41.47;100760.06;16109672;19;131619;-64
2023/12/29 12:10:33;;;;;;;1.65;0.60;;;;;;;17.13;41.96;100757.31;16099291;19;130206;-65
2023/12/29 12:15:55;;;;;;;6.60;1.25;;;;;;;17.13;41.86;100754.53;16104907;19;135631;-64
2023/12/29 12:21:19;;;;;;;1.17;0.57;;;;;;;17.13;41.73;100765.59;16110008;19;129703;-65
2023/12/29 12:26:41;;;;;;;3.70;0.88;;;;;;;17.14;41.74;100759.00;16108814;19;129886;-65
2023/12/29 12:32:04;;;;;;;2.25;0.90;;;;;;;17.14;41.96;100753.47;16111178;19;132146;-64
2023/12/29 12:37:28;;;;;;;3.47;0.65;;;;;;;17.14;42.08;100756.22;16110541;19;129523;-64
2023/12/29 12:42:50;;;;;;;3.90;0.82;;;;;;;17.15;41.67;100749.63;16110455;19;130141;-65
2023/12/29 12:48:23;;;;;;;4.53;0.75;;;;;;;17.14;41.75;100753.47;16109429;19;130960;-64
2023/12/29 12:53:47;;;;;;;3.70;0.57;;;;;;;17.14;42.00;100739.63;16106342;19;130475;-64
2023/12/29 12:59:10;;;;;;;2.15;0.63;;;;;;;17.15;41.87;100734.97;16104569;19;130951;-65
2023/12/29 13:04:32;;;;;;;2.42;0.75;;;;;;;17.13;41.88;100737.94;16106181;19;131247;-65
2023/12/29 13:09:56;;;;;;;1.35;0.50;;;;;;;17.14;41.78;100719.47;16105040;19;130394;-65
2023/12/29 13:15:18;;;;;;;1.95;0.63;;;;;;;17.13;41.97;100715.84;16110173;19;130941;-65
2023/12/29 13:20:46;;;;;;;3.22;0.47;;;;;;;17.14;41.79;100713.94;16106812;19;130421;-65
2023/12/29 13:26:09;;;;;;;2.15;0.60;;;;;;;17.13;42.15;100715.84;16105879;19;129679;-64
2023/12/29 13:31:32;;;;;;;1.98;0.73;;;;;;;17.13;41.82;100710.31;16104568;19;129383;-65
2023/12/29 13:37:05;;;;;;;2.55;0.80;;;;;;;17.15;41.85;100710.09;16104659;19;129507;-65
2023/12/29 13:42:29;;;;;;;1.73;0.60;;;;;;;17.13;42.03;100721.38;16106012;19;130014;-65
2023/12/29 13:47:52;;;;;;;2.05;0.50;;;;;;;17.13;42.06;100715.84;16105333;19;129648;-63
2023/12/29 13:53:18;;;;;;;3.10;0.50;;;;;;;17.12;42.16;100714.16;16105986;19;129636;-64
2023/12/29 13:58:40;;;;;;;3.45;0.57;;;;;;;17.11;42.12;100718.00;16102906;19;129660;-65
2023/12/29 14:04:07;;;;;;;2.65;0.40;;;;;;;17.12;42.18;100718.84;16101210;19;130952;-64
2023/12/29 14:09:29;;;;;;;3.28;0.70;;;;;;;17.12;42.31;100700.34;16110259;19;131926;-65
2023/12/29 14:14:51;;;;;;;2.08;0.93;;;;;;;17.11;42.05;100704.19;16115305;19;129467;-65
2023/12/29 14:20:33;;;;;;;2.05;0.60;;;;;;;17.13;41.93;100688.19;16116393;19;130652;-65
2023/12/29 14:26:03;;;;;;;1.00;0.38;;;;;;;17.13;42.19;100709.47;16118509;19;130992;-65
2023/12/29 14:31:25;;;;;;;0.80;0.25;;;;;;;17.12;42.19;100716.09;16119165;19;131302;-65
2023/12/29 14:36:47;;;;;;;1.63;0.38;;;;;;;17.12;42.10;100713.31;16120847;19;129520;-64
2023/12/29 14:42:09;;;;;;;2.40;0.70;;;;;;;17.11;42.44;100717.19;16113934;19;130288;-65
2023/12/29 14:47:31;;;;;;;1.13;0.47;;;;;;;17.11;42.46;100715.22;16117678;19;129488;-65
2023/12/29 14:52:53;;;;;;;1.42;0.40;;;;;;;17.12;42.54;100705.03;16117384;19;129852;-65
2023/12/29 14:58:15;;;;;;;1.80;0.50;;;;;;;17.11;42.53;100701.41;16116586;19;129718;-65
2023/12/29 15:03:37;;;;;;;0.63;0.30;;;;;;;17.10;42.07;100677.66;16116646;19;129454;-65
2023/12/29 15:08:59;;;;;;;1.30;0.38;;;;;;;17.10;42.24;100661.06;16117004;19;130965;-65
2023/12/29 15:14:21;;;;;;;1.73;0.40;;;;;;;17.11;42.30;100664.66;16107616;19;130758;-62
2023/12/29 15:19:43;;;;;;;3.75;0.70;;;;;;;17.10;42.55;100676.78;16109435;19;130487;-69
2023/12/29 15:25:06;;;;;;;4.10;0.70;;;;;;;17.11;42.59;100678.47;16106921;19;130461;-68
2023/12/29 15:30:28;;;;;;;4.60;0.77;;;;;;;17.11;42.73;100679.31;16111362;19;129208;-70
2023/12/29 15:35:50;;;;;;;6.40;0.70;;;;;;;17.12;43.20;100700.34;16110234;19;131338;-65
2023/12/29 15:41:12;;;;;;;5.45;0.93;;;;;;;17.15;43.45;100686.03;16108691;19;129878;-65
2023/12/29 15:46:34;;;;;;;2.65;0.68;;;;;;;17.17;43.41;100683.88;16113992;19;130491;-65
2023/12/29 15:51:56;;;;;;;6.30;1.10;;;;;;;17.19;43.45;100667.91;16108472;19;131134;-65
2023/12/29 15:57:17;;;;;;;7.30;0.80;;;;;;;17.27;43.30;100677.75;16116009;19;129619;-65
2023/12/29 16:02:40;;;;;;;3.10;0.88;;;;;;;17.38;43.40;100684.31;16108720;19;131786;-65
2023/12/29 16:08:02;;;;;;;5.25;1.15;;;;;;;17.52;43.28;100668.31;16105754;19;129880;-68
2023/12/29 16:13:24;;;;;;;10.52;1.08;;;;;;;17.71;42.92;100663.47;16112854;19;129539;-68
2023/12/29 16:18:46;;;;;;;5.28;1.27;;;;;;;17.97;42.68;100656.47;16112799;19;129404;-68
2023/12/29 16:24:12;;;;;;;5.13;1.27;;;;;;;18.28;42.32;100647.88;16115362;19;129780;-68
2023/12/29 16:29:34;;;;;;;6.53;0.90;;;;;;;18.56;41.89;100638.66;16111254;19;130178;-68
2023/12/29 16:34:56;;;;;;;4.13;0.88;;;;;;;18.76;41.15;100637.31;16114156;19;130804;-68
2023/12/29 16:40:18;;;;;;;6.57;1.08;;;;;;;18.86;40.81;100623.59;16115301;19;130207;-68
2023/12/29 16:45:40;;;;;;;5.68;0.82;;;;;;;18.89;40.90;100628.63;16111120;19;130555;-68
2023/12/29 16:51:02;;;;;;;3.75;0.90;;;;;;;18.87;40.96;100627.19;16110878;19;130125;-69
2023/12/29 16:56:24;;;;;;;4.30;0.80;;;;;;;18.82;40.54;100638.22;16111123;19;130935;-68
2023/12/29 17:01:46;;;;;;;4.18;0.82;;;;;;;18.75;40.98;100664.19;16111610;19;130470;-69
2023/12/29 17:07:09;;;;;;;3.53;0.80;;;;;;;18.68;40.61;100666.28;16109958;19;130050;-70
2023/12/29 17:12:31;;;;;;;3.17;0.60;;;;;;;18.63;41.04;100676.47;16112446;19;130714;-69
2023/12/29 17:17:53;;;;;;;3.72;1.10;;;;;;;18.54;41.14;100673.25;16109382;19;130433;-69
2023/12/29 17:23:15;;;;;;;3.42;0.80;;;;;;;18.46;40.84;100678.13;16109825;19;133825;-69
2023/12/29 17:28:37;;;;;;;2.42;0.70;;;;;;;18.40;40.91;100667.22;16109717;19;129544;-69
2023/12/29 17:33:59;;;;;;;5.43;1.00;;;;;;;18.34;41.29;100685.63;16110584;19;129242;-69
2023/12/29 17:39:21;;;;;;;3.75;0.73;;;;;;;18.33;41.09;100700.59;16107610;19;131088;-68
2023/12/29 17:44:43;;;;;;;3.85;0.77;;;;;;;18.38;41.38;100705.38;16118242;19;129625;-69
2023/12/29 17:50:06;;;;;;;2.22;0.90;;;;;;;18.45;40.92;100714.38;16127097;19;130425;-69
2023/12/29 17:55:28;;;;;;;3.22;1.00;;;;;;;18.52;41.06;100720.63;16128101;19;129567;-69
2023/12/29 18:00:50;;;;;;;3.17;0.93;;;;;;;18.65;40.88;100727.75;16128636;19;128888;-69
2023/12/29 18:06:13;;;;;;;1.92;0.70;;;;;;;18.86;40.70;100711.44;16134241;19;129638;-67
2023/12/29 18:11:35;;;;;;;3.63;0.60;;;;;;;19.14;40.33;100715.19;16162212;19;130295;-69
2023/12/29 18:16:57;;;;;;;2.63;0.68;;;;;;;19.43;40.13;100728.97;16160281;19;129012;-68
2023/12/29 18:22:18;;;;;;;3.00;0.98;;;;;;;19.73;39.62;100730.44;16161477;19;130467;-68
2023/12/29 18:27:41;;;;;;;1.58;0.77;;;;;;;19.97;39.31;100731.84;16165589;19;129625;-68
2023/12/29 18:33:03;;;;;;;1.48;0.60;;;;;;;20.18;38.92;100746.00;16165644;19;130611;-67
2023/12/29 18:38:25;;;;;;;2.53;0.82;;;;;;;20.31;38.66;100746.69;16166486;19;129190;-68
2023/12/29 18:43:47;;;;;;;2.03;0.63;;;;;;;20.35;38.56;100770.03;16171309;19;128842;-68
2023/12/29 18:49:10;;;;;;;2.45;0.70;;;;;;;20.33;38.39;100770.31;16171643;19;129654;-68
2023/12/29 18:54:33;;;;;;;2.35;0.80;;;;;;;20.29;38.57;100775.56;16166050;19;129607;-68
2023/12/29 18:59:55;;;;;;;2.45;0.80;;;;;;;20.24;38.42;100788.56;16169012;19;129727;-68
2023/12/29 19:05:17;;;;;;;2.03;0.50;;;;;;;20.19;38.22;100785.72;16175489;19;129225;-67
2023/12/29 19:10:39;;;;;;;3.35;0.75;;;;;;;20.14;38.66;100789.28;16168233;19;130051;-68
2023/12/29 19:16:04;;;;;;;3.90;1.10;;;;;;;20.08;38.50;100806.97;16171827;19;129185;-67
2023/12/29 19:21:28;;;;;;;3.97;1.00;;;;;;;20.03;38.53;100815.25;16174036;19;129375;-69
2023/12/29 19:26:50;;;;;;;2.05;0.63;;;;;;;19.97;38.47;100817.91;16170626;19;128801;-66
2023/12/29 19:32:12;;;;;;;3.03;1.00;;;;;;;19.92;38.37;100831.75;16173057;19;129044;-67
2023/12/29 19:37:34;;;;;;;2.40;0.82;;;;;;;19.87;38.58;100817.78;16171351;19;129825;-68
2023/12/29 19:42:56;;;;;;;3.30;1.20;;;;;;;19.81;38.80;100807.72;16169123;19;129734;-69
2023/12/29 19:48:18;;;;;;;2.08;0.73;;;;;;;19.78;38.47;100813.78;16138426;19;129425;-66
2023/12/29 19:53:40;;;;;;;4.10;1.10;;;;;;;19.73;38.48;100802.59;16120273;19;133412;-66
2023/12/29 19:59:02;;;;;;;5.03;1.05;;;;;;;19.72;38.57;100812.03;16117032;19;129534;-67
2023/12/29 20:04:24;;;;;;;1.98;0.70;;;;;;;19.73;38.76;100817.34;16117133;19;129867;-67
2023/12/29 20:09:46;;;;;;;3.38;0.90;;;;;;;19.78;38.40;100813.78;16122961;19;129395;-68
2023/12/29 20:15:08;;;;;;;2.65;1.02;;;;;;;19.81;38.63;100825.22;16113964;19;130251;-68
2023/12/29 20:20:31;;;;;;;2.63;0.75;;;;;;;19.86;38.50;100829.97;16116487;19;129570;-67
2023/12/29 20:25:54;;;;;;;4.43;1.05;;;;;;;19.94;38.62;100840.63;16117900;19;131602;-67
2023/12/29 20:31:36;;;;;;;3.35;1.45;;;;;;;19.99;38.10;100835.19;16119349;19;131783;-67
2023/12/29 20:36:58;;;;;;;2.75;1.00;;;;;;;20.05;38.46;100840.81;16119014;19;129773;-67
2023/12/29 20:42:20;;;;;;;3.70;1.08;;;;;;;20.09;38.31;100830.84;16119532;19;130850;-67
2023/12/29 20:47:42;;;;;;;3.40;1.20;;;;;;;20.11;37.88;100831.44;16115384;19;129832;-67
2023/12/29 20:53:04;;;;;;;3.83;1.30;;;;;;;20.09;37.87;100841.97;16114013;19;129559;-68
2023/12/29 20:58:28;;;;;;;2.03;1.00;;;;;;;20.05;37.86;100846.38;16114584;19;129667;-66
2023/12/29 21:03:51;;;;;;;3.47;1.00;;;;;;;19.98;38.05;100854.88;16114965;19;131296;-68
2023/12/29 21:09:14;;;;;;;4.28;1.05;;;;;;;19.90;37.98;100874.72;16114671;19;129555;-68
2023/12/29 21:14:37;;;;;;;3.72;0.80;;;;;;;19.79;38.46;100869.03;16111830;19;129284;-67
2023/12/29 21:20:00;;;;;;;3.20;0.90;;;;;;;19.71;38.54;100871.41;16113314;19;130464;-68
2023/12/29 21:25:22;;;;;;;3.50;0.90;;;;;;;19.59;38.42;100866.78;16111145;19;129396;-67
2023/12/29 21:30:44;;;;;;;4.13;1.25;;;;;;;19.50;38.63;100874.72;16113377;19;131224;-67
2023/12/29 21:36:07;;;;;;;3.92;1.00;;;;;;;19.42;38.61;100874.31;16109572;19;129588;-67
2023/12/29 21:41:35;;;;;;;3.45;1.10;;;;;;;19.31;38.55;100888.03;16114722;19;129295;-67
2023/12/29 21:46:57;;;;;;;3.80;1.00;;;;;;;19.22;38.57;100883.97;16110084;19;129698;-67
2023/12/29 21:52:19;;;;;;;6.30;1.40;;;;;;;19.14;39.01;100887.94;16113992;19;129624;-68
2023/12/29 21:57:41;;;;;;;5.05;1.23;;;;;;;19.08;38.82;100883.41;16111733;19;129703;-68
2023/12/29 22:03:03;;;;;;;3.17;1.10;;;;;;;19.01;38.93;100882.75;16111473;19;129571;-69
2023/12/29 22:08:25;;;;;;;3.90;1.20;;;;;;;18.94;38.92;100899.53;16117234;19;129856;-67
2023/12/29 22:13:47;;;;;;;4.72;1.23;;;;;;;18.87;39.04;100907.16;16113909;19;129725;-67
2023/12/29 22:19:09;;;;;;;3.08;1.13;;;;;;;18.81;39.19;100909.00;16110556;19;133376;-67
2023/12/29 22:24:31;;;;;;;4.78;1.15;;;;;;;18.77;39.17;100916.09;16102460;19;130182;-66
2023/12/29 22:29:53;;;;;;;3.55;1.00;;;;;;;18.71;39.50;100929.03;16118621;19;129573;-66
2023/12/29 22:35:15;;;;;;;5.18;1.30;;;;;;;18.67;39.52;100927.00;16124602;19;133475;-67
2023/12/29 22:40:37;;;;;;;3.53;1.13;;;;;;;18.63;39.59;100931.38;16125562;19;129533;-68
2023/12/29 22:46:00;;;;;;;3.92;1.10;;;;;;;18.57;39.42;100938.75;16125427;19;131488;-67
2023/12/29 22:51:21;;;;;;;4.40;1.30;;;;;;;18.53;39.45;100938.38;16142084;19;130487;-66
2023/12/29 22:56:44;;;;;;;3.10;1.50;;;;;;;18.49;39.57;100947.41;16155928;19;129121;-68
2023/12/29 23:02:07;;;;;;;4.40;1.23;;;;;;;18.44;39.35;100946.25;16148231;19;129025;-67
2023/12/29 23:07:29;;;;;;;5.22;1.30;;;;;;;18.40;39.61;100956.13;16149732;19;130671;-67
2023/12/29 23:12:51;;;;;;;3.65;1.15;;;;;;;18.36;39.57;100965.13;16146683;19;129946;-68
2023/12/29 23:18:13;;;;;;;6.88;1.60;;;;;;;18.33;39.43;100960.94;16141792;19;130847;-67
2023/12/29 23:23:35;;;;;;;4.57;1.10;;;;;;;18.29;39.82;100976.34;16143590;19;132583;-68
2023/12/29 23:28:57;;;;;;;2.85;1.10;;;;;;;18.24;39.72;100978.97;16144341;19;129802;-68
2023/12/29 23:34:19;;;;;;;5.22;1.30;;;;;;;18.22;39.55;100992.22;16139107;19;131583;-67
2023/12/29 23:39:41;;;;;;;4.68;1.33;;;;;;;18.18;40.08;100986.31;16136517;19;130535;-68
2023/12/29 23:45:04;;;;;;;3.70;0.98;;;;;;;18.17;40.03;100989.34;16132811;19;129276;-68
2023/12/29 23:50:26;;;;;;;3.95;1.40;;;;;;;18.13;39.96;100989.00;16138584;19;129064;-68
2023/12/29 23:55:48;;;;;;;3.63;1.10;;;;;;;18.10;39.76;101000.53;16133342;19;131252;-67
